createdAt,value
2018-10-09T00:00:39.235Z,17.67
2018-10-09T00:03:06.590Z,16.20
2018-10-09T00:05:33.993Z,16.60
2018-10-09T00:08:01.395Z,18.23
2018-10-09T00:10:29.101Z,17.80
2018-10-09T00:12:56.509Z,17.63
2018-10-09T00:15:24.081Z,17.37
2018-10-09T00:17:51.645Z,18.60
2018-10-09T00:20:23.598Z,18.57
2018-10-09T00:22:52.382Z,19.70
2018-10-09T00:25:19.846Z,20.17
2018-10-09T00:27:47.276Z,19.33
2018-10-09T00:30:14.742Z,18.80
2018-10-09T00:32:45.636Z,20.40
2018-10-09T00:35:13.577Z,20.70
2018-10-09T00:37:40.912Z,19.50
2018-10-09T00:40:08.487Z,19.03
2018-10-09T00:42:36.063Z,19.07
2018-10-09T00:45:03.717Z,18.57
2018-10-09T00:47:31.206Z,20.47
2018-10-09T00:49:58.652Z,20.53
2018-10-09T00:52:26.211Z,20.47
2018-10-09T00:54:53.687Z,19.67
2018-10-09T00:57:21.122Z,20.53
2018-10-09T00:59:48.528Z,18.80
2018-10-09T01:02:16.283Z,18.50
2018-10-09T01:04:43.704Z,20.47
2018-10-09T01:07:11.158Z,18.37
2018-10-09T01:09:38.737Z,19.90
2018-10-09T01:12:06.265Z,19.27
2018-10-09T01:14:33.695Z,20.13
2018-10-09T01:17:01.208Z,19.33
2018-10-09T01:19:28.973Z,19.57
2018-10-09T01:21:56.413Z,20.50
2018-10-09T01:24:23.946Z,19.57
2018-10-09T01:26:51.392Z,21.27
2018-10-09T01:29:18.800Z,20.73
2018-10-09T01:31:46.259Z,21.23
2018-10-09T01:34:13.668Z,23.30
2018-10-09T01:36:41.132Z,19.77
2018-10-09T01:39:09.438Z,20.80
2018-10-09T01:41:36.981Z,21.50
2018-10-09T01:44:04.441Z,21.00
2018-10-09T01:46:31.885Z,21.03
2018-10-09T01:48:59.287Z,20.10
2018-10-09T01:51:26.811Z,20.77
2018-10-09T01:53:54.491Z,20.40
2018-10-09T01:56:21.968Z,21.90
2018-10-09T01:58:49.369Z,20.40
2018-10-09T02:01:16.833Z,19.50
2018-10-09T02:03:44.315Z,19.80
2018-10-09T02:06:14.778Z,20.83
2018-10-09T02:08:42.217Z,19.30
2018-10-09T02:11:09.620Z,20.17
2018-10-09T02:13:37.008Z,19.80
2018-10-09T02:16:04.489Z,18.30
2018-10-09T02:18:32.123Z,18.70
2018-10-09T02:20:59.541Z,18.73
2018-10-09T02:23:27.133Z,17.50
2018-10-09T02:25:54.541Z,18.13
2018-10-09T02:28:21.929Z,18.97
2018-10-09T02:30:49.369Z,18.97
2018-10-09T02:33:16.761Z,19.93
2018-10-09T02:35:44.143Z,18.67
2018-10-09T02:38:11.621Z,17.83
2018-10-09T02:40:39.109Z,17.40
2018-10-09T02:43:06.493Z,18.83
2018-10-09T02:45:33.975Z,18.10
2018-10-09T02:48:01.325Z,18.97
2018-10-09T02:50:28.733Z,19.03
2018-10-09T02:52:56.189Z,19.80
2018-10-09T02:55:23.607Z,17.87
2018-10-09T02:57:51.025Z,17.90
2018-10-09T03:00:18.460Z,17.60
2018-10-09T03:02:45.949Z,18.40
2018-10-09T03:05:13.345Z,18.20
2018-10-09T03:07:40.829Z,20.63
2018-10-09T03:10:08.269Z,18.67
2018-10-09T03:12:35.681Z,19.57
2018-10-09T03:15:03.649Z,19.97
2018-10-09T03:17:31.059Z,19.30
2018-10-09T03:19:58.501Z,19.60
2018-10-09T03:22:25.933Z,17.03
2018-10-09T03:24:53.325Z,18.10
2018-10-09T03:27:20.769Z,17.70
2018-10-09T03:29:48.273Z,18.67
2018-10-09T03:32:15.697Z,18.97
2018-10-09T03:34:43.107Z,18.20
2018-10-09T03:37:10.587Z,16.63
2018-10-09T03:39:38.096Z,16.97
2018-10-09T03:42:05.793Z,16.77
2018-10-09T03:44:33.239Z,16.73
2018-10-09T03:47:00.621Z,16.37
2018-10-09T03:49:28.111Z,16.13
2018-10-09T03:51:55.553Z,15.03
2018-10-09T03:54:23.055Z,16.47
2018-10-09T03:56:50.613Z,16.97
2018-10-09T03:59:18.030Z,17.57
2018-10-09T04:01:45.436Z,15.47
2018-10-09T04:04:12.843Z,17.13
2018-10-09T04:06:40.263Z,16.87
2018-10-09T04:09:10.251Z,16.97
2018-10-09T04:11:37.669Z,16.70
2018-10-09T04:14:05.189Z,19.23
2018-10-09T04:16:32.573Z,17.90
2018-10-09T04:18:59.975Z,17.43
2018-10-09T04:21:27.471Z,16.70
2018-10-09T04:23:54.965Z,16.70
2018-10-09T04:26:22.492Z,17.47
2018-10-09T04:28:50.000Z,17.23
2018-10-09T04:31:17.445Z,18.60
2018-10-09T04:33:44.862Z,17.10
2018-10-09T04:36:12.325Z,18.50
2018-10-09T04:38:39.734Z,18.50
2018-10-09T04:41:07.237Z,19.87
2018-10-09T04:43:34.717Z,19.10
2018-10-09T04:46:02.190Z,19.47
2018-10-09T04:48:29.648Z,18.17
2018-10-09T04:50:57.104Z,20.17
2018-10-09T04:53:24.583Z,18.10
2018-10-09T04:55:52.000Z,18.63
2018-10-09T04:58:19.436Z,19.10
2018-10-09T05:00:47.011Z,18.27
2018-10-09T05:03:14.467Z,20.67
2018-10-09T05:05:41.922Z,19.47
2018-10-09T05:08:09.408Z,19.63
2018-10-09T05:10:36.819Z,19.50
2018-10-09T05:13:04.200Z,20.80
2018-10-09T05:15:31.694Z,21.97
2018-10-09T05:17:59.081Z,19.17
2018-10-09T05:20:26.552Z,20.63
2018-10-09T05:22:53.941Z,20.37
2018-10-09T05:25:21.397Z,19.90
2018-10-09T05:27:48.952Z,20.77
2018-10-09T05:30:16.344Z,21.50
2018-10-09T05:32:43.740Z,19.90
2018-10-09T05:35:11.137Z,20.57
2018-10-09T05:37:38.590Z,19.90
2018-10-09T05:40:06.077Z,20.50
2018-10-09T05:42:33.546Z,18.50
2018-10-09T05:45:00.986Z,19.60
2018-10-09T05:47:28.434Z,20.80
2018-10-09T05:49:55.901Z,20.10
2018-10-09T05:52:23.438Z,22.40
2018-10-09T05:54:50.847Z,20.47
2018-10-09T05:57:18.285Z,21.87
2018-10-09T05:59:45.759Z,21.30
2018-10-09T06:02:13.329Z,21.20
2018-10-09T06:04:40.776Z,18.37
2018-10-09T06:07:08.256Z,17.03
2018-10-09T06:09:35.832Z,19.73
2018-10-09T06:12:03.571Z,17.00
2018-10-09T06:14:30.957Z,17.13
2018-10-09T06:16:58.442Z,15.20
2018-10-09T06:19:25.949Z,14.97
2018-10-09T06:21:53.453Z,14.90
2018-10-09T06:24:20.869Z,12.90
2018-10-09T06:26:48.913Z,13.20
2018-10-09T06:29:18.513Z,14.37
2018-10-09T06:31:47.438Z,13.57
2018-10-09T06:34:15.843Z,21.03
2018-10-09T06:36:43.373Z,13.57
2018-10-09T06:39:11.600Z,14.90
2018-10-09T06:41:40.008Z,12.47
2018-10-09T06:44:07.470Z,13.50
2018-10-09T06:46:35.050Z,12.60
2018-10-09T06:49:02.601Z,15.20
2018-10-09T06:51:30.042Z,14.77
2018-10-09T06:53:58.663Z,15.57
2018-10-09T06:56:26.600Z,15.53
2018-10-09T06:58:54.338Z,16.00
2018-10-09T07:01:21.752Z,16.53
2018-10-09T07:03:49.167Z,16.17
2018-10-09T07:06:16.662Z,15.80
2018-10-09T07:08:44.171Z,17.00
2018-10-09T07:11:11.734Z,18.10
2018-10-09T07:13:39.055Z,16.70
2018-10-09T07:16:06.536Z,16.17
2018-10-09T07:18:33.987Z,17.27
2018-10-09T07:21:01.457Z,16.67
2018-10-09T07:23:28.902Z,16.97
2018-10-09T07:25:56.378Z,16.70
2018-10-09T07:28:23.798Z,16.80
2018-10-09T07:30:51.266Z,16.50
2018-10-09T07:33:18.791Z,15.93
2018-10-09T07:35:46.212Z,16.10
2018-10-09T07:38:13.762Z,15.70
2018-10-09T07:40:41.236Z,16.47
2018-10-09T07:43:08.782Z,15.30
2018-10-09T07:45:36.247Z,16.73
2018-10-09T07:48:03.678Z,16.37
2018-10-09T07:50:31.106Z,16.47
2018-10-09T07:52:58.798Z,15.47
2018-10-09T07:55:26.407Z,16.60
2018-10-09T07:57:55.019Z,15.77
2018-10-09T08:00:23.113Z,15.63
2018-10-09T08:02:50.552Z,14.63
2018-10-09T08:05:18.103Z,15.70
2018-10-09T08:07:45.599Z,16.87
2018-10-09T08:10:13.079Z,16.17
2018-10-09T08:12:40.617Z,16.27
2018-10-09T08:15:08.190Z,17.23
2018-10-09T08:17:35.715Z,17.23
2018-10-09T08:20:03.435Z,15.57
2018-10-09T08:22:31.010Z,18.20
2018-10-09T08:24:58.661Z,16.60
2018-10-09T08:27:26.328Z,16.50
2018-10-09T08:29:53.765Z,15.77
2018-10-09T08:32:21.321Z,18.77
2018-10-09T08:34:48.663Z,18.80
2018-10-09T08:37:16.113Z,18.30
2018-10-09T08:39:44.415Z,19.30
2018-10-09T08:42:11.895Z,19.33
2018-10-09T08:44:39.354Z,18.17
2018-10-09T08:47:06.920Z,18.50
2018-10-09T08:49:34.462Z,19.10
2018-10-09T08:52:01.982Z,18.27
2018-10-09T08:54:29.347Z,18.17
2018-10-09T08:56:56.784Z,17.43
2018-10-09T08:59:24.245Z,16.97
2018-10-09T09:01:51.789Z,17.23
2018-10-09T09:04:19.265Z,19.03
2018-10-09T09:06:46.699Z,17.47
2018-10-09T09:09:14.146Z,17.10
2018-10-09T09:11:41.627Z,17.90
2018-10-09T09:14:09.095Z,18.00
2018-10-09T09:16:36.525Z,18.67
2018-10-09T09:19:04.065Z,17.73
2018-10-09T09:21:32.103Z,18.60
2018-10-09T09:23:59.891Z,17.20
2018-10-09T09:26:27.466Z,18.00
2018-10-09T09:28:55.446Z,19.70
2018-10-09T09:31:22.926Z,18.83
2018-10-09T09:33:50.419Z,20.30
2018-10-09T09:36:17.839Z,20.80
2018-10-09T09:38:45.286Z,20.90
2018-10-09T09:41:12.812Z,22.50
2018-10-09T09:43:40.263Z,22.60
2018-10-09T09:46:07.935Z,23.07
2018-10-09T09:48:35.373Z,22.27
2018-10-09T09:51:02.819Z,23.80
2018-10-09T09:53:30.288Z,24.23
2018-10-09T09:55:57.693Z,22.90
2018-10-09T09:58:25.259Z,23.77
2018-10-09T10:00:56.091Z,23.20
2018-10-09T10:03:23.496Z,23.67
2018-10-09T10:05:50.930Z,24.40
2018-10-09T10:08:18.537Z,22.70
2018-10-09T10:10:45.953Z,22.60
2018-10-09T10:13:13.441Z,24.33
2018-10-09T10:15:40.949Z,24.77
2018-10-09T10:18:08.294Z,23.70
2018-10-09T10:20:35.692Z,24.43
2018-10-09T10:23:03.144Z,24.13
2018-10-09T10:25:30.690Z,25.57
2018-10-09T10:27:58.093Z,23.27
2018-10-09T10:30:26.040Z,26.03
2018-10-09T10:32:53.461Z,25.30
2018-10-09T10:35:20.939Z,24.77
2018-10-09T10:37:48.382Z,25.27
2018-10-09T10:40:15.818Z,24.00
2018-10-09T10:42:43.709Z,26.33
2018-10-09T10:45:11.280Z,24.23
2018-10-09T10:47:38.706Z,25.50
2018-10-09T10:50:06.140Z,25.73
2018-10-09T10:55:07.811Z,26.63
2018-10-09T10:57:35.221Z,25.83
2018-10-09T11:00:03.015Z,26.00
2018-10-09T11:02:30.480Z,27.20
2018-10-09T11:04:57.921Z,27.90
2018-10-09T11:07:25.343Z,27.10
2018-10-09T11:09:52.777Z,27.43
2018-10-09T11:12:20.325Z,25.20
2018-10-09T11:14:47.812Z,26.00
2018-10-09T11:17:15.379Z,25.50
2018-10-09T11:19:42.882Z,25.00
2018-10-09T11:22:10.352Z,26.00
2018-10-09T11:24:37.749Z,25.50
2018-10-09T11:27:05.303Z,27.17
2018-10-09T11:29:32.719Z,25.73
2018-10-09T11:32:00.228Z,26.10
2018-10-09T11:34:27.671Z,25.70
2018-10-09T11:36:55.114Z,27.13
2018-10-09T11:39:22.522Z,26.30
2018-10-09T11:41:50.291Z,26.70
2018-10-09T11:44:17.664Z,24.90
2018-10-09T11:46:45.134Z,26.10
2018-10-09T11:49:12.634Z,24.97
2018-10-09T11:51:40.185Z,26.17
2018-10-09T11:54:07.666Z,26.87
2018-10-09T11:56:35.169Z,25.70
2018-10-09T11:59:02.721Z,26.23
2018-10-09T12:01:30.138Z,27.60
2018-10-09T12:03:57.772Z,25.83
2018-10-09T12:06:25.218Z,26.50
2018-10-09T12:08:52.727Z,26.70
2018-10-09T12:11:20.632Z,26.57
2018-10-09T12:13:48.254Z,25.33
2018-10-09T12:16:15.917Z,25.73
2018-10-09T12:18:43.448Z,26.07
2018-10-09T12:21:10.908Z,25.47
2018-10-09T12:23:38.374Z,25.30
2018-10-09T12:26:05.984Z,26.80
2018-10-09T12:28:33.382Z,25.07
2018-10-09T12:31:01.265Z,25.07
2018-10-09T12:33:29.034Z,25.37
2018-10-09T12:35:56.482Z,25.07
2018-10-09T12:38:23.968Z,26.77
2018-10-09T12:40:51.418Z,23.57
2018-10-09T12:43:18.944Z,25.30
2018-10-09T12:45:46.477Z,24.27
2018-10-09T12:48:14.202Z,26.20
2018-10-09T12:50:41.600Z,24.43
2018-10-09T12:53:09.028Z,26.27
2018-10-09T12:55:36.488Z,25.10
2018-10-09T12:58:04.031Z,26.70
2018-10-09T13:00:31.651Z,25.70
2018-10-09T13:02:59.331Z,26.37
2018-10-09T13:05:26.794Z,24.60
2018-10-09T13:07:54.306Z,25.33
2018-10-09T13:10:21.827Z,25.60
2018-10-09T13:12:49.492Z,26.67
2018-10-09T13:15:16.931Z,23.77
2018-10-09T13:17:44.558Z,23.60
2018-10-09T13:20:11.790Z,25.83
2018-10-09T13:22:39.264Z,25.03
2018-10-09T13:25:07.280Z,25.07
2018-10-09T13:27:34.718Z,24.37
2018-10-09T13:30:02.226Z,24.40
2018-10-09T13:32:29.700Z,24.33
2018-10-09T13:34:57.210Z,25.10
2018-10-09T13:37:24.758Z,24.57
2018-10-09T13:39:52.240Z,26.70
2018-10-09T13:42:19.738Z,26.20
2018-10-09T13:44:47.248Z,24.33
2018-10-09T13:47:14.776Z,25.77
2018-10-09T13:49:42.382Z,26.10
2018-10-09T13:52:09.926Z,23.57
2018-10-09T13:54:37.383Z,22.83
2018-10-09T13:57:04.926Z,23.10
2018-10-09T13:59:32.378Z,21.50
2018-10-09T14:01:59.866Z,20.60
2018-10-09T14:04:27.338Z,20.20
2018-10-09T14:06:54.884Z,21.53
2018-10-09T14:09:22.334Z,20.50
2018-10-09T14:11:49.771Z,21.47
2018-10-09T14:14:17.302Z,20.93
2018-10-09T14:16:45.432Z,22.47
2018-10-09T14:19:13.009Z,24.13
2018-10-09T14:21:40.634Z,20.73
2018-10-09T14:24:08.096Z,25.13
2018-10-09T14:26:35.974Z,22.53
2018-10-09T14:29:03.584Z,21.17
2018-10-09T14:31:31.205Z,21.87
2018-10-09T14:33:58.608Z,19.57
2018-10-09T14:36:26.210Z,21.27
2018-10-09T14:38:53.810Z,21.57
2018-10-09T14:41:21.726Z,22.93
2018-10-09T14:43:49.943Z,20.40
2018-10-09T14:46:17.915Z,20.70
2018-10-09T14:48:45.405Z,20.67
2018-10-09T14:51:12.898Z,20.40
2018-10-09T14:53:40.526Z,20.50
2018-10-09T14:56:08.105Z,20.83
2018-10-09T14:58:35.575Z,17.40
2018-10-09T15:01:03.075Z,17.63
2018-10-09T15:03:30.714Z,18.20
2018-10-09T15:05:58.087Z,19.80
2018-10-09T15:08:25.527Z,18.80
2018-10-09T15:10:53.165Z,19.13
2018-10-09T15:13:20.827Z,18.17
2018-10-09T15:15:48.367Z,19.40
2018-10-09T15:18:15.935Z,18.70
2018-10-09T15:20:43.685Z,17.50
2018-10-09T15:23:11.371Z,18.30
2018-10-09T15:25:38.893Z,17.80
2018-10-09T15:28:06.873Z,16.70
2018-10-09T15:30:34.374Z,18.40
2018-10-09T15:33:02.016Z,19.30
2018-10-09T15:35:29.562Z,17.37
2018-10-09T15:37:57.247Z,18.00
2018-10-09T15:40:25.048Z,18.00
2018-10-09T15:42:52.874Z,17.90
2018-10-09T15:45:20.565Z,18.33
2018-10-09T15:47:48.506Z,18.20
2018-10-09T15:50:16.343Z,18.07
2018-10-09T15:52:44.180Z,18.00
2018-10-09T15:55:11.788Z,19.73
2018-10-09T15:57:39.458Z,17.40
2018-10-09T16:00:09.138Z,20.50
2018-10-09T16:02:36.790Z,18.73
2018-10-09T16:05:04.560Z,19.10
2018-10-09T16:07:32.204Z,17.93
2018-10-09T16:09:59.718Z,18.87
2018-10-09T16:12:27.229Z,17.57
2018-10-09T16:14:54.740Z,17.40
2018-10-09T16:17:22.305Z,18.47
2018-10-09T16:19:49.760Z,19.53
2018-10-09T16:22:17.222Z,19.90
2018-10-09T16:24:44.652Z,18.60
2018-10-09T16:27:12.138Z,21.83
2018-10-09T16:29:39.698Z,21.50
2018-10-09T16:32:07.227Z,20.70
2018-10-09T16:34:34.785Z,21.13
2018-10-09T16:37:02.506Z,23.07
2018-10-09T16:39:29.997Z,21.90
2018-10-09T16:41:57.463Z,24.77
2018-10-09T16:44:25.034Z,21.60
2018-10-09T16:46:52.612Z,23.33
2018-10-09T16:49:20.093Z,22.80
2018-10-09T16:51:47.630Z,23.00
2018-10-09T16:54:15.083Z,21.47
2018-10-09T16:56:42.626Z,23.57
2018-10-09T16:59:10.103Z,23.27
2018-10-09T17:01:37.840Z,24.13
2018-10-09T17:04:05.305Z,24.60
2018-10-09T17:06:32.899Z,23.93
2018-10-09T17:09:00.504Z,23.77
2018-10-09T17:11:28.006Z,25.70
2018-10-09T17:13:55.564Z,24.40
2018-10-09T17:16:23.022Z,28.43
2018-10-09T17:18:50.532Z,23.47
2018-10-09T17:21:18.056Z,25.50
2018-10-09T17:23:46.106Z,25.13
2018-10-09T17:26:13.592Z,26.30
2018-10-09T17:28:41.126Z,30.57
2018-10-09T17:31:08.613Z,26.93
2018-10-09T17:33:36.185Z,26.77
2018-10-09T17:36:03.720Z,26.47
2018-10-09T17:38:31.127Z,25.63
2018-10-09T17:40:58.598Z,25.00
2018-10-09T17:43:26.102Z,26.87
2018-10-09T17:45:53.572Z,27.07
2018-10-09T17:48:21.014Z,26.90
2018-10-09T17:50:48.528Z,26.33
2018-10-09T17:53:15.956Z,28.07
2018-10-09T17:55:43.420Z,28.10
2018-10-09T17:58:11.039Z,29.27
2018-10-09T18:00:38.635Z,30.80
2018-10-09T18:03:06.287Z,28.70
2018-10-09T18:05:33.735Z,31.43
2018-10-09T18:08:01.255Z,33.90
2018-10-09T18:10:28.720Z,27.57
2018-10-09T18:12:56.198Z,28.07
2018-10-09T18:15:23.716Z,27.70
2018-10-09T18:17:51.181Z,26.60
2018-10-09T18:20:18.799Z,31.17
2018-10-09T18:22:46.259Z,30.40
2018-10-09T18:25:13.711Z,31.40
2018-10-09T18:27:41.254Z,31.20
2018-10-09T18:30:09.357Z,30.33
2018-10-09T18:32:36.903Z,30.93
2018-10-09T18:35:04.629Z,29.93
2018-10-09T18:37:32.107Z,30.10
2018-10-09T18:39:59.525Z,29.20
2018-10-09T18:42:27.116Z,28.97
2018-10-09T18:44:54.472Z,27.63
2018-10-09T18:47:27.551Z,29.93
2018-10-09T18:49:55.035Z,28.70
2018-10-09T18:52:22.560Z,29.30
2018-10-09T18:54:50.064Z,28.63
2018-10-09T18:57:17.489Z,28.70
2018-10-09T18:59:45.016Z,29.60
2018-10-09T19:02:12.510Z,27.67
2018-10-09T19:04:39.943Z,28.63
2018-10-09T19:07:07.471Z,28.00
2018-10-09T19:09:34.956Z,29.20
2018-10-09T19:12:02.719Z,29.47
2018-10-09T19:14:30.131Z,29.30
2018-10-09T19:16:57.648Z,27.80
2018-10-09T19:19:25.078Z,30.13
2018-10-09T19:21:52.643Z,28.97
2018-10-09T19:24:20.068Z,31.37
2018-10-09T19:26:47.666Z,29.43
2018-10-09T19:29:15.216Z,30.67
2018-10-09T19:31:42.740Z,31.50
2018-10-09T19:34:10.202Z,29.43
2018-10-09T19:36:37.647Z,30.80
2018-10-09T19:39:08.030Z,30.50
2018-10-09T19:41:35.782Z,28.67
2018-10-09T19:44:03.238Z,30.57
2018-10-09T19:46:30.726Z,30.30
2018-10-09T19:48:58.156Z,31.80
2018-10-09T19:51:25.710Z,30.00
2018-10-09T19:53:53.070Z,31.93
2018-10-09T19:56:20.619Z,31.07
2018-10-09T19:58:48.069Z,32.97
2018-10-09T20:01:15.578Z,31.90
2018-10-09T20:03:42.997Z,33.40
2018-10-09T20:06:10.426Z,32.07
2018-10-09T20:08:38.014Z,34.17
2018-10-09T20:11:05.549Z,32.73
2018-10-09T20:13:33.049Z,33.00
2018-10-09T20:16:02.134Z,32.40
2018-10-09T20:18:29.590Z,33.50
2018-10-09T20:20:57.092Z,32.10
2018-10-09T20:23:24.577Z,33.63
2018-10-09T20:25:52.145Z,33.77
2018-10-09T20:28:19.633Z,32.93
2018-10-09T20:30:47.110Z,32.33
2018-10-09T20:33:14.546Z,32.40
2018-10-09T20:35:42.138Z,32.10
2018-10-09T20:38:09.772Z,33.23
2018-10-09T20:40:37.321Z,32.87
2018-10-09T20:43:04.897Z,33.10
2018-10-09T20:45:32.415Z,33.90
2018-10-09T20:47:59.804Z,32.60
2018-10-09T20:50:27.224Z,33.27
2018-10-09T20:52:54.683Z,31.37
2018-10-09T20:55:22.182Z,31.17
2018-10-09T20:57:49.659Z,33.57
2018-10-09T21:00:17.301Z,34.07
2018-10-09T21:02:44.727Z,29.97
2018-10-09T21:05:12.308Z,32.40
2018-10-09T21:07:39.801Z,33.43
2018-10-09T21:10:07.299Z,31.50
2018-10-09T21:12:34.811Z,32.73
2018-10-09T21:15:02.297Z,30.90
2018-10-09T21:17:29.722Z,31.47
2018-10-09T21:19:57.566Z,30.50
2018-10-09T21:22:28.121Z,30.57
2018-10-09T21:24:55.713Z,30.63
2018-10-09T21:27:23.151Z,31.67
2018-10-09T21:29:50.657Z,35.00
2018-10-09T21:32:18.084Z,35.10
2018-10-09T21:34:45.509Z,41.20
2018-10-09T21:37:13.106Z,37.53
2018-10-09T21:39:40.497Z,39.83
2018-10-09T21:42:07.866Z,38.80
2018-10-09T21:44:35.343Z,40.63
2018-10-09T21:47:02.798Z,39.73
2018-10-09T21:49:30.237Z,39.17
2018-10-09T21:51:57.785Z,40.77
2018-10-09T21:54:25.203Z,39.00
2018-10-09T21:56:52.643Z,38.80
2018-10-09T21:59:20.069Z,40.20
2018-10-09T22:01:47.570Z,40.43
2018-10-09T22:04:15.178Z,37.10
2018-10-09T22:06:42.767Z,39.37
2018-10-09T22:09:10.290Z,36.80
2018-10-09T22:11:37.737Z,39.13
2018-10-09T22:14:05.426Z,36.97
2018-10-09T22:16:32.967Z,36.10
2018-10-09T22:19:00.534Z,39.97
2018-10-09T22:21:28.113Z,38.17
2018-10-09T22:23:55.540Z,37.80
2018-10-09T22:26:22.986Z,39.53
2018-10-09T22:28:50.474Z,36.40
2018-10-09T22:31:17.962Z,37.10
2018-10-09T22:33:45.479Z,36.17
2018-10-09T22:36:13.026Z,34.10
2018-10-09T22:38:40.603Z,34.37
2018-10-09T22:41:08.178Z,35.77
2018-10-09T22:43:35.632Z,36.07
2018-10-09T22:46:03.114Z,36.70
2018-10-09T22:48:30.579Z,35.80
2018-10-09T22:50:58.252Z,36.90
2018-10-09T22:53:25.634Z,39.20
2018-10-09T22:55:53.106Z,38.57
2018-10-09T22:58:20.654Z,38.10
2018-10-09T23:00:48.139Z,37.07
2018-10-09T23:03:15.760Z,37.17
2018-10-09T23:05:43.258Z,35.00
2018-10-09T23:08:10.771Z,37.90
2018-10-09T23:10:38.229Z,38.37
2018-10-09T23:13:05.962Z,37.17
2018-10-09T23:15:33.511Z,37.93
2018-10-09T23:18:00.905Z,38.30
2018-10-09T23:20:28.398Z,38.60
2018-10-09T23:22:55.846Z,38.17
2018-10-09T23:25:23.316Z,37.40
2018-10-09T23:27:50.797Z,37.10
2018-10-09T23:30:18.226Z,36.47
2018-10-09T23:32:45.678Z,39.13
2018-10-09T23:35:13.169Z,37.20
2018-10-09T23:37:40.701Z,36.70
2018-10-09T23:40:08.260Z,37.83
2018-10-09T23:42:35.803Z,36.37
2018-10-09T23:45:03.350Z,36.30
2018-10-09T23:47:30.930Z,39.23
2018-10-09T23:49:58.508Z,36.90
2018-10-09T23:52:25.930Z,38.43
2018-10-09T23:54:53.512Z,37.67
2018-10-09T23:57:21.203Z,39.20
2018-10-09T23:59:48.627Z,37.23
